29/4 a 8/5 - Fresco a templado y luego breve entrada de aire polar

Avatar de Usuario
Ale de Castelar
Mensajes: 27749
Registrado: Sab Mar 03, 2012 12:25 pm
Ubicación: Caballito

Re: 29/4 a 9/5 - Fresco a templado y luego breve entrada de aire polar

Mensaje por Ale de Castelar » Lun May 04, 2020 2:39 pm

Tremendas bases
Adjuntos
IMG_20200504_143725.jpg
IMG_20200504_143656.jpg

Avatar de Usuario
Diecha
Mensajes: 13815
Registrado: Jue Ago 25, 2011 9:31 pm
Ubicación: Lomas de Zamora

Re: 29/4 a 9/5 - Fresco a templado y luego breve entrada de aire polar

Mensaje por Diecha » Lun May 04, 2020 2:40 pm

- Ezeiza 14:20 hs: SAEZ 041720Z 01004KT 3000 -TSRA FEW050CB BKN025 OVC100 18/16 Q1011

Imagen

Avatar de Usuario
Ale de Castelar
Mensajes: 27749
Registrado: Sab Mar 03, 2012 12:25 pm
Ubicación: Caballito

Re: 29/4 a 9/5 - Fresco a templado y luego breve entrada de aire polar

Mensaje por Ale de Castelar » Lun May 04, 2020 2:43 pm

Locura
Adjuntos
FB_IMG_1588614206183.jpg

Avatar de Usuario
Diecha
Mensajes: 13815
Registrado: Jue Ago 25, 2011 9:31 pm
Ubicación: Lomas de Zamora

Re: 29/4 a 9/5 - Fresco a templado y luego breve entrada de aire polar

Mensaje por Diecha » Lun May 04, 2020 2:45 pm


Avatar de Usuario
Ezequiel15
Mensajes: 12184
Registrado: Lun Ene 23, 2012 4:18 pm
Ubicación: I Casanova
Contactar:

Re: 29/4 a 9/5 - Fresco a templado y luego breve entrada de aire polar

Mensaje por Ezequiel15 » Lun May 04, 2020 2:45 pm

Granizo!!!

Avatar de Usuario
diegotelesa
Mensajes: 1516
Registrado: Mié Jul 24, 2013 10:48 pm
Ubicación: Ramos Mejía

Re: 29/4 a 9/5 - Fresco a templado y luego breve entrada de aire polar

Mensaje por diegotelesa » Lun May 04, 2020 2:46 pm

Diluvio!!!

Avatar de Usuario
Diecha
Mensajes: 13815
Registrado: Jue Ago 25, 2011 9:31 pm
Ubicación: Lomas de Zamora

Re: 29/4 a 9/5 - Fresco a templado y luego breve entrada de aire polar

Mensaje por Diecha » Lun May 04, 2020 2:47 pm

- El Palomar 14:33 hs: SADP 041733Z 18003KT 9999 BKN050 OVC100 16/15 Q1011 RERA

Imagen

maatii96
Mensajes: 4827
Registrado: Lun Abr 16, 2012 7:07 pm

Re: 29/4 a 9/5 - Fresco a templado y luego breve entrada de aire polar

Mensaje por maatii96 » Lun May 04, 2020 2:47 pm

Se llueve todo con granizo muy pequeño :)

Avatar de Usuario
Diecha
Mensajes: 13815
Registrado: Jue Ago 25, 2011 9:31 pm
Ubicación: Lomas de Zamora

Re: 29/4 a 9/5 - Fresco a templado y luego breve entrada de aire polar

Mensaje por Diecha » Lun May 04, 2020 2:49 pm


Avatar de Usuario
Ernest
Mensajes: 11836
Registrado: Vie Jul 17, 2009 10:54 pm
Ubicación: Balvanera, CABA

Re: 29/4 a 9/5 - Fresco a templado y luego breve entrada de aire polar

Mensaje por Ernest » Lun May 04, 2020 2:51 pm

Truenos por Once

Edito: llueve fuerte
Última edición por Ernest el Lun May 04, 2020 2:56 pm, editado 1 vez en total.
Did you want to talk about the weather, or were you just making chitchat?

Twitter: @ErnestoMeteo

Responder